sensor_id;sensor_type;location;lat;lon;timestamp;temperature;humidity
909;DHT22;441;51.192;6.788;2024-02-26T00:01:45;21.50;52.50
909;DHT22;441;51.192;6.788;2024-02-26T00:04:11;21.50;52.50
909;DHT22;441;51.192;6.788;2024-02-26T00:06:38;21.50;52.50
909;DHT22;441;51.192;6.788;2024-02-26T00:09:06;21.50;52.60
909;DHT22;441;51.192;6.788;2024-02-26T00:11:35;21.50;52.70
909;DHT22;441;51.192;6.788;2024-02-26T00:14:02;21.40;52.60
909;DHT22;441;51.192;6.788;2024-02-26T00:16:31;21.40;52.60
909;DHT22;441;51.192;6.788;2024-02-26T00:18:57;21.40;52.70
909;DHT22;441;51.192;6.788;2024-02-26T00:21:24;21.40;52.80
909;DHT22;441;51.192;6.788;2024-02-26T00:23:53;21.40;52.80
909;DHT22;441;51.192;6.788;2024-02-26T00:26:19;21.40;52.80
909;DHT22;441;51.192;6.788;2024-02-26T00:28:46;21.40;52.90
909;DHT22;441;51.192;6.788;2024-02-26T00:31:13;21.30;52.80
909;DHT22;441;51.192;6.788;2024-02-26T00:33:41;21.30;52.90
909;DHT22;441;51.192;6.788;2024-02-26T00:36:07;21.30;52.90
909;DHT22;441;51.192;6.788;2024-02-26T00:38:35;21.30;52.90
909;DHT22;441;51.192;6.788;2024-02-26T00:41:03;21.30;53.00
909;DHT22;441;51.192;6.788;2024-02-26T00:43:30;21.30;53.00
909;DHT22;441;51.192;6.788;2024-02-26T00:45:56;21.30;53.00
909;DHT22;441;51.192;6.788;2024-02-26T00:48:23;21.20;53.00
909;DHT22;441;51.192;6.788;2024-02-26T00:50:52;21.20;53.00
909;DHT22;441;51.192;6.788;2024-02-26T00:53:19;21.20;53.10
909;DHT22;441;51.192;6.788;2024-02-26T00:55:45;21.20;53.10
909;DHT22;441;51.192;6.788;2024-02-26T00:58:12;21.20;53.70
909;DHT22;441;51.192;6.788;2024-02-26T01:00:39;21.20;53.20
909;DHT22;441;51.192;6.788;2024-02-26T01:03:05;21.20;53.20
909;DHT22;441;51.192;6.788;2024-02-26T01:05:32;21.20;53.20
909;DHT22;441;51.192;6.788;2024-02-26T01:08:00;21.20;53.20
909;DHT22;441;51.192;6.788;2024-02-26T01:10:28;21.20;53.20
909;DHT22;441;51.192;6.788;2024-02-26T01:12:54;21.10;53.20
909;DHT22;441;51.192;6.788;2024-02-26T01:15:21;21.10;53.20
909;DHT22;441;51.192;6.788;2024-02-26T01:17:49;21.10;53.30
909;DHT22;441;51.192;6.788;2024-02-26T01:20:16;21.10;53.30
909;DHT22;441;51.192;6.788;2024-02-26T01:22:43;21.10;53.40
909;DHT22;441;51.192;6.788;2024-02-26T01:25:11;21.10;53.40
909;DHT22;441;51.192;6.788;2024-02-26T01:27:39;21.10;53.40
909;DHT22;441;51.192;6.788;2024-02-26T01:30:07;21.10;53.40
909;DHT22;441;51.192;6.788;2024-02-26T01:32:34;21.10;53.50
909;DHT22;441;51.192;6.788;2024-02-26T01:35:01;21.10;53.50
909;DHT22;441;51.192;6.788;2024-02-26T01:37:29;21.00;53.50
909;DHT22;441;51.192;6.788;2024-02-26T01:39:55;21.00;53.40
909;DHT22;441;51.192;6.788;2024-02-26T01:42:23;21.00;53.50
909;DHT22;441;51.192;6.788;2024-02-26T01:44:50;21.00;53.50
909;DHT22;441;51.192;6.788;2024-02-26T01:47:16;21.00;53.50
909;DHT22;441;51.192;6.788;2024-02-26T01:49:43;21.00;53.50
909;DHT22;441;51.192;6.788;2024-02-26T01:52:10;21.00;54.10
909;DHT22;441;51.192;6.788;2024-02-26T01:54:38;21.00;53.60
909;DHT22;441;51.192;6.788;2024-02-26T01:57:06;20.90;53.50
909;DHT22;441;51.192;6.788;2024-02-26T01:59:35;21.00;53.70
909;DHT22;441;51.192;6.788;2024-02-26T02:02:03;21.00;53.60
909;DHT22;441;51.192;6.788;2024-02-26T02:04:31;21.00;53.70
909;DHT22;441;51.192;6.788;2024-02-26T02:07:00;20.90;53.50
909;DHT22;441;51.192;6.788;2024-02-26T02:09:28;20.90;53.60
909;DHT22;441;51.192;6.788;2024-02-26T02:11:55;20.90;53.60
909;DHT22;441;51.192;6.788;2024-02-26T02:14:22;20.90;53.50
909;DHT22;441;51.192;6.788;2024-02-26T02:16:50;20.90;53.60
909;DHT22;441;51.192;6.788;2024-02-26T02:19:17;20.90;53.60
909;DHT22;441;51.192;6.788;2024-02-26T02:21:45;20.90;53.70
909;DHT22;441;51.192;6.788;2024-02-26T02:24:12;20.90;54.20
909;DHT22;441;51.192;6.788;2024-02-26T02:26:38;20.90;53.70
909;DHT22;441;51.192;6.788;2024-02-26T02:29:06;20.90;53.70
909;DHT22;441;51.192;6.788;2024-02-26T02:31:34;20.80;53.70
909;DHT22;441;51.192;6.788;2024-02-26T02:34:01;20.90;53.70
909;DHT22;441;51.192;6.788;2024-02-26T02:36:28;20.80;53.70
909;DHT22;441;51.192;6.788;2024-02-26T02:38:56;20.90;53.80
909;DHT22;441;51.192;6.788;2024-02-26T02:41:23;20.80;53.70
909;DHT22;441;51.192;6.788;2024-02-26T02:43:51;20.80;53.70
909;DHT22;441;51.192;6.788;2024-02-26T02:46:18;20.80;53.70
909;DHT22;441;51.192;6.788;2024-02-26T02:48:45;20.80;53.70
909;DHT22;441;51.192;6.788;2024-02-26T02:51:12;20.90;53.80
909;DHT22;441;51.192;6.788;2024-02-26T02:53:38;20.80;53.80
909;DHT22;441;51.192;6.788;2024-02-26T02:56:06;20.80;53.90
909;DHT22;441;51.192;6.788;2024-02-26T02:58:33;20.80;53.90
909;DHT22;441;51.192;6.788;2024-02-26T03:01:00;20.80;53.90
909;DHT22;441;51.192;6.788;2024-02-26T03:03:26;20.80;53.90
909;DHT22;441;51.192;6.788;2024-02-26T03:05:54;20.80;53.90
909;DHT22;441;51.192;6.788;2024-02-26T03:08:21;20.80;54.00
909;DHT22;441;51.192;6.788;2024-02-26T03:10:49;20.80;54.00
909;DHT22;441;51.192;6.788;2024-02-26T03:13:17;20.70;53.90
909;DHT22;441;51.192;6.788;2024-02-26T03:15:44;20.80;54.00
909;DHT22;441;51.192;6.788;2024-02-26T03:18:10;20.80;54.00
909;DHT22;441;51.192;6.788;2024-02-26T03:20:37;20.80;54.00
909;DHT22;441;51.192;6.788;2024-02-26T03:23:04;20.70;53.90
909;DHT22;441;51.192;6.788;2024-02-26T03:25:31;20.80;54.00
909;DHT22;441;51.192;6.788;2024-02-26T03:27:57;20.70;53.90
909;DHT22;441;51.192;6.788;2024-02-26T03:30:25;20.70;53.90
909;DHT22;441;51.192;6.788;2024-02-26T03:32:52;20.70;53.90
909;DHT22;441;51.192;6.788;2024-02-26T03:35:19;20.70;53.90
909;DHT22;441;51.192;6.788;2024-02-26T03:37:46;20.70;54.00
909;DHT22;441;51.192;6.788;2024-02-26T03:40:15;20.70;54.00
909;DHT22;441;51.192;6.788;2024-02-26T03:42:44;20.70;54.00
909;DHT22;441;51.192;6.788;2024-02-26T03:45:11;20.70;54.00
909;DHT22;441;51.192;6.788;2024-02-26T03:47:39;20.70;54.10
909;DHT22;441;51.192;6.788;2024-02-26T03:50:07;20.70;54.00
909;DHT22;441;51.192;6.788;2024-02-26T03:52:34;20.70;54.10
909;DHT22;441;51.192;6.788;2024-02-26T03:55:00;20.80;54.20
909;DHT22;441;51.192;6.788;2024-02-26T03:57:27;20.70;54.10
909;DHT22;441;51.192;6.788;2024-02-26T03:59:54;20.70;54.10
909;DHT22;441;51.192;6.788;2024-02-26T04:02:21;20.70;54.10
909;DHT22;441;51.192;6.788;2024-02-26T04:04:49;20.70;54.10
909;DHT22;441;51.192;6.788;2024-02-26T04:07:16;20.70;54.10
909;DHT22;441;51.192;6.788;2024-02-26T04:09:43;20.70;54.10
909;DHT22;441;51.192;6.788;2024-02-26T04:12:10;20.70;54.10
909;DHT22;441;51.192;6.788;2024-02-26T04:14:36;20.70;54.10
909;DHT22;441;51.192;6.788;2024-02-26T04:17:03;20.70;54.10
909;DHT22;441;51.192;6.788;2024-02-26T04:19:30;20.70;54.10
909;DHT22;441;51.192;6.788;2024-02-26T04:21:58;20.70;54.10
909;DHT22;441;51.192;6.788;2024-02-26T04:24:25;20.70;54.10
909;DHT22;441;51.192;6.788;2024-02-26T04:26:52;20.70;54.10
909;DHT22;441;51.192;6.788;2024-02-26T04:29:19;20.70;54.10
909;DHT22;441;51.192;6.788;2024-02-26T04:31:45;20.70;54.10
909;DHT22;441;51.192;6.788;2024-02-26T04:34:13;20.70;54.10
909;DHT22;441;51.192;6.788;2024-02-26T04:36:40;20.70;54.10
909;DHT22;441;51.192;6.788;2024-02-26T04:39:09;20.70;54.10
909;DHT22;441;51.192;6.788;2024-02-26T04:41:36;20.70;54.10
909;DHT22;441;51.192;6.788;2024-02-26T04:44:03;20.70;54.10
909;DHT22;441;51.192;6.788;2024-02-26T04:46:30;20.70;54.10
909;DHT22;441;51.192;6.788;2024-02-26T04:48:56;20.70;54.10
909;DHT22;441;51.192;6.788;2024-02-26T04:51:23;20.70;54.10
909;DHT22;441;51.192;6.788;2024-02-26T04:53:50;20.70;54.10
909;DHT22;441;51.192;6.788;2024-02-26T04:56:20;20.70;54.10
909;DHT22;441;51.192;6.788;2024-02-26T04:58:47;20.70;54.10
909;DHT22;441;51.192;6.788;2024-02-26T05:01:13;20.70;54.10
909;DHT22;441;51.192;6.788;2024-02-26T05:03:41;20.70;54.10
909;DHT22;441;51.192;6.788;2024-02-26T05:06:08;20.70;54.10
909;DHT22;441;51.192;6.788;2024-02-26T05:08:35;20.70;54.10
909;DHT22;441;51.192;6.788;2024-02-26T05:11:04;20.70;54.10
909;DHT22;441;51.192;6.788;2024-02-26T05:13:32;20.70;54.20
909;DHT22;441;51.192;6.788;2024-02-26T05:15:58;20.70;54.10
909;DHT22;441;51.192;6.788;2024-02-26T05:18:25;20.70;54.20
909;DHT22;441;51.192;6.788;2024-02-26T05:20:52;20.70;54.10
909;DHT22;441;51.192;6.788;2024-02-26T05:23:19;20.70;54.10
909;DHT22;441;51.192;6.788;2024-02-26T05:25:45;20.70;54.10
909;DHT22;441;51.192;6.788;2024-02-26T05:28:13;20.70;54.20
909;DHT22;441;51.192;6.788;2024-02-26T05:30:42;20.70;54.20
909;DHT22;441;51.192;6.788;2024-02-26T05:33:09;20.70;54.20
909;DHT22;441;51.192;6.788;2024-02-26T05:35:35;20.70;54.20
909;DHT22;441;51.192;6.788;2024-02-26T05:38:02;20.70;54.20
909;DHT22;441;51.192;6.788;2024-02-26T05:40:29;20.70;54.20
909;DHT22;441;51.192;6.788;2024-02-26T05:42:56;20.70;54.20
909;DHT22;441;51.192;6.788;2024-02-26T05:45:23;20.70;54.20
909;DHT22;441;51.192;6.788;2024-02-26T05:47:51;20.80;54.40
909;DHT22;441;51.192;6.788;2024-02-26T05:50:17;20.80;54.40
909;DHT22;441;51.192;6.788;2024-02-26T05:52:44;20.80;54.40
909;DHT22;441;51.192;6.788;2024-02-26T05:55:11;20.80;54.50
909;DHT22;441;51.192;6.788;2024-02-26T05:57:38;20.80;54.50
909;DHT22;441;51.192;6.788;2024-02-26T06:00:06;20.80;54.70
909;DHT22;441;51.192;6.788;2024-02-26T06:02:33;20.80;54.90
909;DHT22;441;51.192;6.788;2024-02-26T06:05:01;20.80;57.90
909;DHT22;441;51.192;6.788;2024-02-26T06:07:28;20.80;59.40
909;DHT22;441;51.192;6.788;2024-02-26T06:09:55;20.90;59.30
909;DHT22;441;51.192;6.788;2024-02-26T06:12:21;20.90;59.30
909;DHT22;441;51.192;6.788;2024-02-26T06:14:48;20.90;59.30
909;DHT22;441;51.192;6.788;2024-02-26T06:17:15;20.90;59.10
909;DHT22;441;51.192;6.788;2024-02-26T06:19:42;20.90;58.90
909;DHT22;441;51.192;6.788;2024-02-26T06:22:10;20.90;59.00
909;DHT22;441;51.192;6.788;2024-02-26T06:24:37;21.00;59.10
909;DHT22;441;51.192;6.788;2024-02-26T06:27:04;21.00;59.20
909;DHT22;441;51.192;6.788;2024-02-26T06:29:30;21.00;59.50
909;DHT22;441;51.192;6.788;2024-02-26T06:31:57;21.00;61.10
909;DHT22;441;51.192;6.788;2024-02-26T06:34:24;21.00;61.80
909;DHT22;441;51.192;6.788;2024-02-26T06:36:51;21.10;61.60
909;DHT22;441;51.192;6.788;2024-02-26T06:39:19;21.10;61.30
909;DHT22;441;51.192;6.788;2024-02-26T06:41:45;21.20;61.10
909;DHT22;441;51.192;6.788;2024-02-26T06:44:13;21.20;60.70
909;DHT22;441;51.192;6.788;2024-02-26T06:46:40;21.20;60.30
909;DHT22;441;51.192;6.788;2024-02-26T06:49:06;21.20;60.00
909;DHT22;441;51.192;6.788;2024-02-26T06:51:33;21.30;59.80
909;DHT22;441;51.192;6.788;2024-02-26T06:54:00;21.30;59.70
909;DHT22;441;51.192;6.788;2024-02-26T06:56:28;21.30;59.50
909;DHT22;441;51.192;6.788;2024-02-26T06:58:54;21.30;59.30
909;DHT22;441;51.192;6.788;2024-02-26T07:01:21;21.30;59.20
909;DHT22;441;51.192;6.788;2024-02-26T07:03:48;21.30;59.00
909;DHT22;441;51.192;6.788;2024-02-26T07:06:14;21.30;58.90
909;DHT22;441;51.192;6.788;2024-02-26T07:08:41;21.40;58.80
909;DHT22;441;51.192;6.788;2024-02-26T07:11:08;21.40;58.70
909;DHT22;441;51.192;6.788;2024-02-26T07:13:36;21.40;58.60
909;DHT22;441;51.192;6.788;2024-02-26T07:16:03;21.40;58.40
909;DHT22;441;51.192;6.788;2024-02-26T07:18:30;21.40;58.30
909;DHT22;441;51.192;6.788;2024-02-26T07:20:57;21.40;58.20
909;DHT22;441;51.192;6.788;2024-02-26T07:23:24;21.50;58.10
909;DHT22;441;51.192;6.788;2024-02-26T07:25:50;21.40;58.00
909;DHT22;441;51.192;6.788;2024-02-26T07:28:18;21.50;57.90
909;DHT22;441;51.192;6.788;2024-02-26T07:30:46;21.50;57.80
909;DHT22;441;51.192;6.788;2024-02-26T07:33:13;21.40;57.60
909;DHT22;441;51.192;6.788;2024-02-26T07:35:40;21.50;57.60
909;DHT22;441;51.192;6.788;2024-02-26T07:38:06;21.50;57.50
909;DHT22;441;51.192;6.788;2024-02-26T07:40:33;21.40;57.40
909;DHT22;441;51.192;6.788;2024-02-26T07:43:00;21.50;57.30
909;DHT22;441;51.192;6.788;2024-02-26T07:45:26;21.50;57.20
909;DHT22;441;51.192;6.788;2024-02-26T07:47:54;21.50;57.10
909;DHT22;441;51.192;6.788;2024-02-26T07:50:21;21.50;57.00
909;DHT22;441;51.192;6.788;2024-02-26T07:52:48;21.50;56.90
909;DHT22;441;51.192;6.788;2024-02-26T07:55:16;21.50;56.80
909;DHT22;441;51.192;6.788;2024-02-26T07:57:44;21.50;56.70
909;DHT22;441;51.192;6.788;2024-02-26T08:00:12;21.50;56.70
909;DHT22;441;51.192;6.788;2024-02-26T08:02:42;21.50;56.60
909;DHT22;441;51.192;6.788;2024-02-26T08:05:10;21.50;56.50
909;DHT22;441;51.192;6.788;2024-02-26T08:07:37;21.50;56.40
909;DHT22;441;51.192;6.788;2024-02-26T08:10:04;21.50;56.30
909;DHT22;441;51.192;6.788;2024-02-26T08:12:30;21.50;56.20
909;DHT22;441;51.192;6.788;2024-02-26T08:14:57;21.50;56.10
909;DHT22;441;51.192;6.788;2024-02-26T08:17:24;21.50;56.10
909;DHT22;441;51.192;6.788;2024-02-26T08:19:52;21.50;56.00
909;DHT22;441;51.192;6.788;2024-02-26T08:22:20;21.50;55.90
909;DHT22;441;51.192;6.788;2024-02-26T08:24:47;21.50;55.80
909;DHT22;441;51.192;6.788;2024-02-26T08:27:14;21.50;55.80
909;DHT22;441;51.192;6.788;2024-02-26T08:29:40;21.50;55.80
909;DHT22;441;51.192;6.788;2024-02-26T08:32:07;21.50;55.70
909;DHT22;441;51.192;6.788;2024-02-26T08:34:34;21.60;55.70
909;DHT22;441;51.192;6.788;2024-02-26T08:37:00;21.50;55.50
909;DHT22;441;51.192;6.788;2024-02-26T08:39:29;21.50;55.40
909;DHT22;441;51.192;6.788;2024-02-26T08:41:55;21.60;55.50
909;DHT22;441;51.192;6.788;2024-02-26T08:44:22;21.50;55.30
909;DHT22;441;51.192;6.788;2024-02-26T08:46:48;21.50;55.30
909;DHT22;441;51.192;6.788;2024-02-26T08:49:16;21.50;55.20
909;DHT22;441;51.192;6.788;2024-02-26T08:51:43;21.50;55.20
909;DHT22;441;51.192;6.788;2024-02-26T08:54:10;21.60;55.20
909;DHT22;441;51.192;6.788;2024-02-26T08:56:38;21.50;55.10
909;DHT22;441;51.192;6.788;2024-02-26T08:59:05;21.60;55.60
909;DHT22;441;51.192;6.788;2024-02-26T09:01:32;21.50;55.00
909;DHT22;441;51.192;6.788;2024-02-26T09:03:59;21.50;54.90
909;DHT22;441;51.192;6.788;2024-02-26T09:06:25;21.60;55.00
909;DHT22;441;51.192;6.788;2024-02-26T09:08:52;21.50;54.80
909;DHT22;441;51.192;6.788;2024-02-26T09:11:19;21.50;54.80
909;DHT22;441;51.192;6.788;2024-02-26T09:13:47;21.50;54.70
909;DHT22;441;51.192;6.788;2024-02-26T09:16:14;21.50;54.70
909;DHT22;441;51.192;6.788;2024-02-26T09:18:40;21.50;54.60
909;DHT22;441;51.192;6.788;2024-02-26T09:21:07;21.50;54.60
909;DHT22;441;51.192;6.788;2024-02-26T09:23:34;21.50;54.60
909;DHT22;441;51.192;6.788;2024-02-26T09:26:00;21.50;54.50
909;DHT22;441;51.192;6.788;2024-02-26T09:28:27;21.50;54.50
909;DHT22;441;51.192;6.788;2024-02-26T09:30:58;21.50;54.90
909;DHT22;441;51.192;6.788;2024-02-26T09:33:25;21.50;54.40
909;DHT22;441;51.192;6.788;2024-02-26T09:35:52;21.50;54.30
909;DHT22;441;51.192;6.788;2024-02-26T09:38:18;21.50;54.30
909;DHT22;441;51.192;6.788;2024-02-26T09:40:45;21.50;54.30
909;DHT22;441;51.192;6.788;2024-02-26T09:43:14;21.50;54.30
909;DHT22;441;51.192;6.788;2024-02-26T09:45:41;21.50;54.20
909;DHT22;441;51.192;6.788;2024-02-26T09:48:10;21.50;54.20
909;DHT22;441;51.192;6.788;2024-02-26T09:50:40;21.50;54.10
909;DHT22;441;51.192;6.788;2024-02-26T09:53:08;21.50;54.10
909;DHT22;441;51.192;6.788;2024-02-26T09:55:35;21.50;54.00
909;DHT22;441;51.192;6.788;2024-02-26T09:58:05;21.50;54.00
909;DHT22;441;51.192;6.788;2024-02-26T10:00:37;21.50;54.00
909;DHT22;441;51.192;6.788;2024-02-26T10:03:05;21.50;53.90
909;DHT22;441;51.192;6.788;2024-02-26T10:05:35;21.40;53.80
909;DHT22;441;51.192;6.788;2024-02-26T10:08:01;21.40;53.80
909;DHT22;441;51.192;6.788;2024-02-26T10:10:29;21.40;53.80
909;DHT22;441;51.192;6.788;2024-02-26T10:12:57;21.40;53.80
909;DHT22;441;51.192;6.788;2024-02-26T10:15:24;21.40;53.70
909;DHT22;441;51.192;6.788;2024-02-26T10:17:51;21.40;53.70
909;DHT22;441;51.192;6.788;2024-02-26T10:20:19;21.40;53.70
909;DHT22;441;51.192;6.788;2024-02-26T10:22:48;21.40;53.60
909;DHT22;441;51.192;6.788;2024-02-26T10:25:15;21.40;53.60
909;DHT22;441;51.192;6.788;2024-02-26T10:27:42;21.40;53.60
909;DHT22;441;51.192;6.788;2024-02-26T10:30:20;21.40;53.60
909;DHT22;441;51.192;6.788;2024-02-26T10:32:49;21.40;53.50
909;DHT22;441;51.192;6.788;2024-02-26T10:35:16;21.40;53.50
909;DHT22;441;51.192;6.788;2024-02-26T10:37:44;21.40;53.50
909;DHT22;441;51.192;6.788;2024-02-26T10:40:12;21.40;53.50
909;DHT22;441;51.192;6.788;2024-02-26T10:42:40;21.40;53.40
909;DHT22;441;51.192;6.788;2024-02-26T10:45:08;21.30;53.40
909;DHT22;441;51.192;6.788;2024-02-26T10:47:35;21.30;53.30
909;DHT22;441;51.192;6.788;2024-02-26T10:50:02;21.30;53.30
909;DHT22;441;51.192;6.788;2024-02-26T10:52:31;21.30;53.30
909;DHT22;441;51.192;6.788;2024-02-26T10:55:00;21.30;53.30
909;DHT22;441;51.192;6.788;2024-02-26T10:57:29;21.30;53.30
909;DHT22;441;51.192;6.788;2024-02-26T10:59:58;21.30;53.30
909;DHT22;441;51.192;6.788;2024-02-26T11:02:26;21.30;53.30
909;DHT22;441;51.192;6.788;2024-02-26T11:04:53;21.30;53.30
909;DHT22;441;51.192;6.788;2024-02-26T11:07:20;21.30;53.20
909;DHT22;441;51.192;6.788;2024-02-26T11:09:49;21.30;53.20
909;DHT22;441;51.192;6.788;2024-02-26T11:12:18;21.30;53.20
909;DHT22;441;51.192;6.788;2024-02-26T11:14:46;21.20;53.10
909;DHT22;441;51.192;6.788;2024-02-26T11:17:15;21.20;53.20
909;DHT22;441;51.192;6.788;2024-02-26T11:19:43;21.20;53.20
909;DHT22;441;51.192;6.788;2024-02-26T11:22:10;21.20;53.20
909;DHT22;441;51.192;6.788;2024-02-26T11:24:37;21.20;53.10
909;DHT22;441;51.192;6.788;2024-02-26T11:27:09;21.20;53.10
909;DHT22;441;51.192;6.788;2024-02-26T11:29:42;21.20;53.10
909;DHT22;441;51.192;6.788;2024-02-26T11:32:11;21.20;53.10
909;DHT22;441;51.192;6.788;2024-02-26T11:34:38;21.20;53.10
909;DHT22;441;51.192;6.788;2024-02-26T11:37:13;21.20;53.10
909;DHT22;441;51.192;6.788;2024-02-26T11:39:40;21.20;53.10
909;DHT22;441;51.192;6.788;2024-02-26T11:42:08;21.10;53.00
909;DHT22;441;51.192;6.788;2024-02-26T11:44:36;21.20;53.00
909;DHT22;441;51.192;6.788;2024-02-26T11:47:14;21.20;53.00
909;DHT22;441;51.192;6.788;2024-02-26T11:49:44;21.10;53.00
909;DHT22;441;51.192;6.788;2024-02-26T11:52:12;21.20;53.10
909;DHT22;441;51.192;6.788;2024-02-26T11:54:43;21.10;53.00
909;DHT22;441;51.192;6.788;2024-02-26T11:57:24;21.10;53.00
909;DHT22;441;51.192;6.788;2024-02-26T11:59:51;21.10;53.00
909;DHT22;441;51.192;6.788;2024-02-26T12:02:52;21.10;53.00
909;DHT22;441;51.192;6.788;2024-02-26T12:05:24;21.10;53.00
909;DHT22;441;51.192;6.788;2024-02-26T12:07:54;21.10;53.00
909;DHT22;441;51.192;6.788;2024-02-26T12:10:24;21.10;53.00
909;DHT22;441;51.192;6.788;2024-02-26T12:12:58;21.10;53.00
909;DHT22;441;51.192;6.788;2024-02-26T12:15:30;21.00;52.90
909;DHT22;441;51.192;6.788;2024-02-26T12:18:01;21.10;53.00
909;DHT22;441;51.192;6.788;2024-02-26T12:20:28;21.00;52.90
909;DHT22;441;51.192;6.788;2024-02-26T12:22:55;21.00;52.90
909;DHT22;441;51.192;6.788;2024-02-26T12:25:23;21.00;52.90
909;DHT22;441;51.192;6.788;2024-02-26T12:27:51;21.00;52.90
909;DHT22;441;51.192;6.788;2024-02-26T12:30:18;21.00;52.90
909;DHT22;441;51.192;6.788;2024-02-26T12:32:44;21.00;52.90
909;DHT22;441;51.192;6.788;2024-02-26T12:35:13;21.00;52.90
909;DHT22;441;51.192;6.788;2024-02-26T12:37:40;21.00;52.90
909;DHT22;441;51.192;6.788;2024-02-26T12:40:08;21.00;52.90
909;DHT22;441;51.192;6.788;2024-02-26T12:42:36;21.00;52.90
909;DHT22;441;51.192;6.788;2024-02-26T12:45:06;21.00;52.90
909;DHT22;441;51.192;6.788;2024-02-26T12:47:36;21.00;52.90
909;DHT22;441;51.192;6.788;2024-02-26T12:50:03;21.00;52.90
909;DHT22;441;51.192;6.788;2024-02-26T12:52:31;20.90;52.80
909;DHT22;441;51.192;6.788;2024-02-26T12:54:58;20.90;52.90
909;DHT22;441;51.192;6.788;2024-02-26T12:57:26;20.90;52.80
909;DHT22;441;51.192;6.788;2024-02-26T12:59:54;20.90;52.80
909;DHT22;441;51.192;6.788;2024-02-26T13:02:21;20.90;52.80
909;DHT22;441;51.192;6.788;2024-02-26T13:04:48;20.90;52.80
909;DHT22;441;51.192;6.788;2024-02-26T13:07:15;20.90;52.80
909;DHT22;441;51.192;6.788;2024-02-26T13:09:46;20.90;52.80
909;DHT22;441;51.192;6.788;2024-02-26T13:12:13;20.90;52.70
909;DHT22;441;51.192;6.788;2024-02-26T13:14:40;20.90;52.70
909;DHT22;441;51.192;6.788;2024-02-26T13:17:07;20.90;52.70
909;DHT22;441;51.192;6.788;2024-02-26T13:19:34;20.90;52.70
909;DHT22;441;51.192;6.788;2024-02-26T13:22:05;20.90;52.70
909;DHT22;441;51.192;6.788;2024-02-26T13:24:33;20.90;52.70
909;DHT22;441;51.192;6.788;2024-02-26T13:27:01;20.80;52.60
909;DHT22;441;51.192;6.788;2024-02-26T13:29:28;20.80;52.60
909;DHT22;441;51.192;6.788;2024-02-26T13:31:55;20.80;52.60
909;DHT22;441;51.192;6.788;2024-02-26T13:34:24;20.80;52.60
909;DHT22;441;51.192;6.788;2024-02-26T13:36:51;20.80;52.60
909;DHT22;441;51.192;6.788;2024-02-26T13:39:24;20.80;52.50
909;DHT22;441;51.192;6.788;2024-02-26T13:41:51;20.80;52.60
909;DHT22;441;51.192;6.788;2024-02-26T13:44:20;20.80;52.60
909;DHT22;441;51.192;6.788;2024-02-26T13:46:47;20.80;52.50
909;DHT22;441;51.192;6.788;2024-02-26T13:49:15;20.80;52.60
909;DHT22;441;51.192;6.788;2024-02-26T13:51:41;20.80;52.60
909;DHT22;441;51.192;6.788;2024-02-26T13:54:08;20.80;52.60
909;DHT22;441;51.192;6.788;2024-02-26T13:56:36;20.80;52.60
909;DHT22;441;51.192;6.788;2024-02-26T13:59:03;20.80;52.50
909;DHT22;441;51.192;6.788;2024-02-26T14:01:31;20.70;52.50
909;DHT22;441;51.192;6.788;2024-02-26T14:03:59;20.70;52.50
909;DHT22;441;51.192;6.788;2024-02-26T14:06:27;20.70;52.50
909;DHT22;441;51.192;6.788;2024-02-26T14:08:54;20.70;52.50
909;DHT22;441;51.192;6.788;2024-02-26T14:11:20;20.70;52.50
909;DHT22;441;51.192;6.788;2024-02-26T14:13:47;20.70;52.50
909;DHT22;441;51.192;6.788;2024-02-26T14:16:14;20.70;52.50
909;DHT22;441;51.192;6.788;2024-02-26T14:18:42;20.70;52.50
909;DHT22;441;51.192;6.788;2024-02-26T14:21:10;20.70;52.60
909;DHT22;441;51.192;6.788;2024-02-26T14:23:37;20.70;52.60
909;DHT22;441;51.192;6.788;2024-02-26T14:26:04;20.70;52.60
909;DHT22;441;51.192;6.788;2024-02-26T14:28:30;20.70;52.60
909;DHT22;441;51.192;6.788;2024-02-26T14:30:58;20.70;52.60
909;DHT22;441;51.192;6.788;2024-02-26T14:33:25;20.70;52.60
909;DHT22;441;51.192;6.788;2024-02-26T14:35:53;20.70;52.50
909;DHT22;441;51.192;6.788;2024-02-26T14:38:19;20.60;52.50
909;DHT22;441;51.192;6.788;2024-02-26T14:40:46;20.70;52.60
909;DHT22;441;51.192;6.788;2024-02-26T14:43:13;20.60;52.50
909;DHT22;441;51.192;6.788;2024-02-26T14:45:40;20.60;52.50
909;DHT22;441;51.192;6.788;2024-02-26T14:48:07;20.60;52.50
909;DHT22;441;51.192;6.788;2024-02-26T14:50:35;20.60;52.50
909;DHT22;441;51.192;6.788;2024-02-26T14:53:04;20.60;52.50
909;DHT22;441;51.192;6.788;2024-02-26T14:55:30;20.60;52.50
909;DHT22;441;51.192;6.788;2024-02-26T14:57:57;20.60;52.50
909;DHT22;441;51.192;6.788;2024-02-26T15:00:24;20.60;52.50
909;DHT22;441;51.192;6.788;2024-02-26T15:02:51;20.60;52.50
909;DHT22;441;51.192;6.788;2024-02-26T15:05:20;20.60;52.50
909;DHT22;441;51.192;6.788;2024-02-26T15:07:46;20.60;52.50
909;DHT22;441;51.192;6.788;2024-02-26T15:10:14;20.60;52.50
909;DHT22;441;51.192;6.788;2024-02-26T15:12:41;20.60;52.50
909;DHT22;441;51.192;6.788;2024-02-26T15:15:08;20.60;53.10
909;DHT22;441;51.192;6.788;2024-02-26T15:17:35;20.60;52.60
909;DHT22;441;51.192;6.788;2024-02-26T15:20:02;20.60;52.50
909;DHT22;441;51.192;6.788;2024-02-26T15:22:30;20.60;52.50
909;DHT22;441;51.192;6.788;2024-02-26T15:24:58;20.50;52.50
909;DHT22;441;51.192;6.788;2024-02-26T15:27:26;20.50;52.50
909;DHT22;441;51.192;6.788;2024-02-26T15:29:52;20.50;52.50
909;DHT22;441;51.192;6.788;2024-02-26T15:32:23;20.50;52.50
909;DHT22;441;51.192;6.788;2024-02-26T15:34:52;20.50;52.50
909;DHT22;441;51.192;6.788;2024-02-26T15:37:18;20.50;52.50
909;DHT22;441;51.192;6.788;2024-02-26T15:39:45;20.50;52.50
909;DHT22;441;51.192;6.788;2024-02-26T15:42:12;20.50;52.50
909;DHT22;441;51.192;6.788;2024-02-26T15:44:40;20.50;52.60
909;DHT22;441;51.192;6.788;2024-02-26T15:47:07;20.50;52.60
909;DHT22;441;51.192;6.788;2024-02-26T15:49:34;20.50;52.60
909;DHT22;441;51.192;6.788;2024-02-26T15:52:02;20.50;52.60
909;DHT22;441;51.192;6.788;2024-02-26T15:54:30;20.50;52.60
909;DHT22;441;51.192;6.788;2024-02-26T15:56:57;20.50;52.60
909;DHT22;441;51.192;6.788;2024-02-26T15:59:23;20.50;52.60
909;DHT22;441;51.192;6.788;2024-02-26T16:01:52;20.50;52.60
909;DHT22;441;51.192;6.788;2024-02-26T16:04:19;20.40;52.50
909;DHT22;441;51.192;6.788;2024-02-26T16:06:49;20.40;52.60
909;DHT22;441;51.192;6.788;2024-02-26T16:09:17;20.50;52.60
909;DHT22;441;51.192;6.788;2024-02-26T16:11:43;20.40;52.60
909;DHT22;441;51.192;6.788;2024-02-26T16:14:16;20.40;52.60
909;DHT22;441;51.192;6.788;2024-02-26T16:16:50;20.40;52.60
909;DHT22;441;51.192;6.788;2024-02-26T16:19:20;20.40;52.60
909;DHT22;441;51.192;6.788;2024-02-26T16:21:47;20.40;52.60
909;DHT22;441;51.192;6.788;2024-02-26T16:24:13;20.40;52.60
909;DHT22;441;51.192;6.788;2024-02-26T16:26:40;20.50;52.60
909;DHT22;441;51.192;6.788;2024-02-26T16:29:07;20.40;52.50
909;DHT22;441;51.192;6.788;2024-02-26T16:31:33;20.40;52.50
909;DHT22;441;51.192;6.788;2024-02-26T16:34:00;20.40;52.50
909;DHT22;441;51.192;6.788;2024-02-26T16:36:28;20.40;52.50